METAR Data
IDs: Format: Raw Decoded Include TAF

Data at: 0738 UTC 03 Aug 2021

NZAA 030730Z AUTO 21022G33KT 9999 FEW028/// 12/08 Q1007 NOSIG